createdAt,value
2023-05-04T00:00:09.489Z,22.40
2023-05-04T00:01:09.515Z,22.40
2023-05-04T00:02:09.510Z,22.40
2023-05-04T00:03:09.583Z,22.40
2023-05-04T00:04:09.671Z,22.39
2023-05-04T00:05:09.582Z,22.40
2023-05-04T00:06:09.586Z,22.40
2023-05-04T00:07:09.623Z,22.39
2023-05-04T00:08:09.599Z,22.39
2023-05-04T00:09:09.627Z,22.39
2023-05-04T00:10:09.682Z,22.39
2023-05-04T00:11:09.681Z,22.40
2023-05-04T00:12:09.719Z,22.39
2023-05-04T00:13:09.786Z,22.39
2023-05-04T00:14:09.765Z,22.39
2023-05-04T00:15:09.708Z,22.39
2023-05-04T00:16:11.086Z,22.39
2023-05-04T00:17:09.754Z,22.39
2023-05-04T00:18:09.801Z,22.39
2023-05-04T00:19:09.776Z,22.39
2023-05-04T00:20:09.817Z,22.38
2023-05-04T00:21:09.852Z,22.38
2023-05-04T00:22:09.854Z,22.38
2023-05-04T00:23:09.897Z,22.38
2023-05-04T00:24:09.912Z,22.38
2023-05-04T00:25:09.917Z,22.38
2023-05-04T00:26:09.965Z,22.37
2023-05-04T00:27:09.973Z,22.37
2023-05-04T00:28:09.969Z,22.37
2023-05-04T00:29:09.971Z,22.37
2023-05-04T00:30:09.995Z,22.37
2023-05-04T00:31:10.027Z,22.37
2023-05-04T00:32:10.078Z,22.36
2023-05-04T00:33:10.097Z,22.37
2023-05-04T00:34:10.075Z,22.37
2023-05-04T00:35:10.113Z,22.37
2023-05-04T00:36:10.145Z,22.37
2023-05-04T00:37:10.132Z,22.37
2023-05-04T00:38:10.186Z,22.37
2023-05-04T00:39:10.151Z,22.37
2023-05-04T00:40:10.186Z,22.38
2023-05-04T00:41:10.194Z,22.38
2023-05-04T00:42:10.243Z,22.37
2023-05-04T00:43:10.237Z,22.37
2023-05-04T00:44:10.262Z,22.37
2023-05-04T00:45:10.289Z,22.37
2023-05-04T00:46:10.325Z,22.38
2023-05-04T00:47:10.419Z,22.37
2023-05-04T00:48:10.526Z,22.37
2023-05-04T00:49:10.392Z,22.37
2023-05-04T00:50:10.444Z,22.36
2023-05-04T00:51:10.469Z,22.36
2023-05-04T00:52:10.449Z,22.37
2023-05-04T00:53:10.504Z,22.36
2023-05-04T00:54:10.486Z,22.36
2023-05-04T00:55:10.548Z,22.37
2023-05-04T00:56:10.538Z,22.37
2023-05-04T00:57:10.577Z,22.37
2023-05-04T00:58:10.582Z,22.36
2023-05-04T00:59:10.645Z,22.36
2023-05-04T01:00:10.642Z,22.37
2023-05-04T01:01:10.742Z,22.36
2023-05-04T01:02:11.131Z,22.36
2023-05-04T01:03:10.830Z,22.36
2023-05-04T01:04:10.833Z,22.35
2023-05-04T01:05:10.772Z,22.36
2023-05-04T01:06:10.798Z,22.35
2023-05-04T01:07:10.806Z,22.35
2023-05-04T01:08:10.875Z,22.35
2023-05-04T01:09:10.848Z,22.35
2023-05-04T01:10:10.914Z,22.35
2023-05-04T01:11:10.954Z,22.35
2023-05-04T01:12:10.952Z,22.35
2023-05-04T01:13:11.045Z,22.35
2023-05-04T01:14:10.997Z,22.35
2023-05-04T01:15:11.013Z,22.35
2023-05-04T01:16:11.034Z,22.34
2023-05-04T01:17:11.179Z,22.35
2023-05-04T01:18:11.172Z,22.34
2023-05-04T01:19:11.130Z,22.35
2023-05-04T01:20:11.134Z,22.34
2023-05-04T01:21:11.183Z,22.35
2023-05-04T01:22:11.189Z,22.35
2023-05-04T01:23:11.216Z,22.35
2023-05-04T01:24:11.248Z,22.35
2023-05-04T01:25:11.270Z,22.34
2023-05-04T01:26:11.304Z,22.34
2023-05-04T01:27:11.354Z,22.35
2023-05-04T01:28:11.371Z,22.34
2023-05-04T01:29:11.379Z,22.34
2023-05-04T01:30:11.422Z,22.34
2023-05-04T01:31:11.442Z,22.33
2023-05-04T01:32:11.625Z,22.34
2023-05-04T01:33:11.564Z,22.34
2023-05-04T01:34:11.496Z,22.34
2023-05-04T01:35:11.502Z,22.34
2023-05-04T01:36:11.555Z,22.33
2023-05-04T01:37:11.568Z,22.34
2023-05-04T01:38:11.591Z,22.34
2023-05-04T01:39:11.640Z,22.34
2023-05-04T01:40:11.671Z,22.34
2023-05-04T01:41:11.644Z,22.34
2023-05-04T01:42:11.683Z,22.33
2023-05-04T01:43:11.743Z,22.33
2023-05-04T01:44:11.732Z,22.33
2023-05-04T01:45:11.759Z,22.34
2023-05-04T01:46:11.879Z,22.32
2023-05-04T01:47:11.845Z,22.33
2023-05-04T01:48:11.870Z,22.33
2023-05-04T01:49:11.871Z,22.33
2023-05-04T01:50:11.888Z,22.33
2023-05-04T01:51:11.925Z,22.33
2023-05-04T01:52:11.971Z,22.33
2023-05-04T01:53:12.044Z,22.33
2023-05-04T01:54:12.016Z,22.32
2023-05-04T01:55:12.043Z,22.32
2023-05-04T01:56:12.073Z,22.31
2023-05-04T01:57:12.112Z,22.32
2023-05-04T01:58:12.124Z,22.32
2023-05-04T01:59:12.167Z,22.32
2023-05-04T02:00:12.210Z,22.32
2023-05-04T02:01:12.258Z,22.32
2023-05-04T02:02:12.255Z,22.31
2023-05-04T02:03:12.364Z,22.31
2023-05-04T02:04:12.419Z,22.32
2023-05-04T02:05:12.327Z,22.31
2023-05-04T02:06:12.362Z,22.31
2023-05-04T02:07:12.399Z,22.31
2023-05-04T02:08:12.400Z,22.31
2023-05-04T02:09:12.442Z,22.31
2023-05-04T02:10:12.480Z,22.31
2023-05-04T02:11:12.483Z,22.31
2023-05-04T02:12:12.563Z,22.31
2023-05-04T02:13:12.666Z,22.31
2023-05-04T02:14:12.592Z,22.31
2023-05-04T02:15:12.628Z,22.31
2023-05-04T02:16:12.672Z,22.31
2023-05-04T02:17:12.709Z,22.31
2023-05-04T02:18:12.740Z,22.31
2023-05-04T02:19:12.705Z,22.30
2023-05-04T02:20:12.766Z,22.30
2023-05-04T02:21:12.778Z,22.30
2023-05-04T02:22:12.858Z,22.31
2023-05-04T02:23:12.822Z,22.30
2023-05-04T02:24:12.883Z,22.30
2023-05-04T02:25:12.903Z,22.30
2023-05-04T02:26:12.919Z,22.30
2023-05-04T02:27:12.947Z,22.30
2023-05-04T02:28:13.009Z,22.30
2023-05-04T02:29:13.006Z,22.29
2023-05-04T02:30:13.047Z,22.29
2023-05-04T02:31:13.121Z,22.29
2023-05-04T02:32:13.085Z,22.29
2023-05-04T02:33:13.186Z,22.29
2023-05-04T02:34:13.171Z,22.29
2023-05-04T02:35:13.224Z,22.28
2023-05-04T02:36:13.218Z,22.28
2023-05-04T02:37:13.280Z,22.28
2023-05-04T02:38:13.314Z,22.28
2023-05-04T02:39:13.331Z,22.29
2023-05-04T02:40:13.395Z,22.28
2023-05-04T02:41:13.417Z,22.28
2023-05-04T02:42:13.435Z,22.28
2023-05-04T02:43:13.447Z,22.28
2023-05-04T02:44:13.475Z,22.28
2023-05-04T02:45:13.544Z,22.28
2023-05-04T02:46:13.554Z,22.27
2023-05-04T02:47:13.600Z,22.27
2023-05-04T02:48:13.658Z,22.27
2023-05-04T02:49:13.684Z,22.27
2023-05-04T02:50:13.696Z,22.27
2023-05-04T02:51:13.698Z,22.27
2023-05-04T02:52:13.767Z,22.27
2023-05-04T02:53:13.791Z,22.27
2023-05-04T02:54:13.808Z,22.27
2023-05-04T02:55:13.843Z,22.27
2023-05-04T02:56:13.899Z,22.27
2023-05-04T02:57:13.909Z,22.27
2023-05-04T02:58:13.950Z,22.27
2023-05-04T02:59:14.019Z,22.27
2023-05-04T03:00:14.039Z,22.27
2023-05-04T03:01:14.113Z,22.27
2023-05-04T03:02:14.116Z,22.27
2023-05-04T03:03:14.157Z,22.27
2023-05-04T03:04:14.284Z,22.26
2023-05-04T03:05:14.250Z,22.27
2023-05-04T03:06:14.271Z,22.26
2023-05-04T03:07:14.303Z,22.26
2023-05-04T03:08:14.325Z,22.26
2023-05-04T03:09:14.361Z,22.26
2023-05-04T03:10:14.413Z,22.26
2023-05-04T03:11:14.432Z,22.25
2023-05-04T03:12:14.478Z,22.26
2023-05-04T03:13:14.560Z,22.25
2023-05-04T03:14:14.525Z,22.25
2023-05-04T03:15:14.561Z,22.25
2023-05-04T03:16:14.680Z,22.25
2023-05-04T03:17:14.622Z,22.25
2023-05-04T03:18:14.671Z,22.24
2023-05-04T03:19:14.674Z,22.25
2023-05-04T03:20:14.734Z,22.25
2023-05-04T03:21:14.781Z,22.25
2023-05-04T03:22:14.797Z,22.26
2023-05-04T03:23:14.815Z,22.25
2023-05-04T03:24:14.868Z,22.25
2023-05-04T03:25:14.887Z,22.25
2023-05-04T03:26:14.916Z,22.25
2023-05-04T03:27:14.980Z,22.24
2023-05-04T03:28:15.004Z,22.24
2023-05-04T03:29:15.028Z,22.24
2023-05-04T03:30:15.098Z,22.25
2023-05-04T03:31:15.142Z,22.24
2023-05-04T03:32:15.213Z,22.24
2023-05-04T03:33:15.222Z,22.24
2023-05-04T03:34:15.204Z,22.24
2023-05-04T03:35:15.381Z,22.24
2023-05-04T03:36:15.274Z,22.24
2023-05-04T03:37:15.311Z,22.24
2023-05-04T03:38:15.378Z,22.24
2023-05-04T03:39:15.371Z,22.23
2023-05-04T03:40:15.436Z,22.24
2023-05-04T03:41:15.461Z,22.23
2023-05-04T03:42:15.521Z,22.23
2023-05-04T03:43:15.539Z,22.23
2023-05-04T03:44:15.550Z,22.24
2023-05-04T03:45:15.589Z,22.23
2023-05-04T03:46:15.686Z,22.23
2023-05-04T03:47:15.669Z,22.23
2023-05-04T03:48:15.691Z,22.23
2023-05-04T03:49:15.740Z,22.23
2023-05-04T03:50:15.766Z,22.23
2023-05-04T03:51:15.841Z,22.23
2023-05-04T03:52:15.861Z,22.23
2023-05-04T03:53:16.022Z,22.23
2023-05-04T03:54:15.969Z,22.23
2023-05-04T03:55:16.026Z,22.24
2023-05-04T03:56:16.173Z,22.24
2023-05-04T03:57:16.113Z,22.23
2023-05-04T03:58:16.114Z,22.23
2023-05-04T03:59:16.150Z,22.23
2023-05-04T04:00:16.213Z,22.23
2023-05-04T04:01:16.237Z,22.22
2023-05-04T04:02:16.685Z,22.22
2023-05-04T04:03:16.571Z,22.23
2023-05-04T04:04:16.435Z,22.22
2023-05-04T04:05:16.421Z,22.23
2023-05-04T04:06:16.456Z,22.23
2023-05-04T04:07:16.502Z,22.23
2023-05-04T04:08:16.518Z,22.21
2023-05-04T04:09:16.594Z,22.21
2023-05-04T04:10:16.602Z,22.22
2023-05-04T04:11:16.632Z,22.22
2023-05-04T04:12:16.708Z,22.22
2023-05-04T04:13:16.842Z,22.22
2023-05-04T04:14:16.769Z,22.22
2023-05-04T04:15:16.793Z,22.22
2023-05-04T04:16:16.853Z,22.22
2023-05-04T04:17:16.884Z,22.22
2023-05-04T04:18:16.910Z,22.22
2023-05-04T04:19:16.967Z,22.22
2023-05-04T04:20:17.012Z,22.23
2023-05-04T04:21:17.015Z,22.22
2023-05-04T04:22:17.093Z,22.22
2023-05-04T04:23:17.174Z,22.22
2023-05-04T04:24:17.167Z,22.22
2023-05-04T04:25:17.223Z,22.22
2023-05-04T04:26:17.270Z,22.22
2023-05-04T04:27:17.277Z,22.22
2023-05-04T04:28:17.326Z,22.22
2023-05-04T04:29:17.371Z,22.22
2023-05-04T04:30:17.430Z,22.22
2023-05-04T04:31:17.497Z,22.22
2023-05-04T04:32:17.490Z,22.22
2023-05-04T04:33:17.559Z,22.21
2023-05-04T04:34:17.565Z,22.22
2023-05-04T04:35:17.643Z,22.22
2023-05-04T04:36:17.652Z,22.21
2023-05-04T04:37:17.679Z,22.21
2023-05-04T04:38:17.735Z,22.22
2023-05-04T04:39:17.781Z,22.22
2023-05-04T04:40:17.786Z,22.22
2023-05-04T04:41:17.850Z,22.22
2023-05-04T04:42:17.865Z,22.22
2023-05-04T04:43:17.931Z,22.22
2023-05-04T04:44:17.953Z,22.22
2023-05-04T04:45:18.014Z,22.22
2023-05-04T04:46:18.098Z,22.22
2023-05-04T04:47:18.087Z,22.22
2023-05-04T04:48:18.136Z,22.23
2023-05-04T04:49:18.166Z,22.22
2023-05-04T04:50:18.232Z,22.23
2023-05-04T04:51:18.243Z,22.22
2023-05-04T04:52:18.328Z,22.23
2023-05-04T04:53:18.325Z,22.23
2023-05-04T04:54:18.364Z,22.23
2023-05-04T04:55:18.413Z,22.23
2023-05-04T04:56:18.468Z,22.23
2023-05-04T04:57:18.473Z,22.23
2023-05-04T04:58:18.523Z,22.22
2023-05-04T04:59:18.545Z,22.23
2023-05-04T05:00:18.631Z,22.23
2023-05-04T05:01:18.643Z,22.22
2023-05-04T05:02:18.702Z,22.23
2023-05-04T05:03:18.715Z,22.23
2023-05-04T05:04:18.764Z,22.23
2023-05-04T05:05:18.811Z,22.23
2023-05-04T05:06:18.819Z,22.23
2023-05-04T05:07:18.890Z,22.23
2023-05-04T05:08:18.906Z,22.24
2023-05-04T05:09:18.963Z,22.24
2023-05-04T05:10:19.004Z,22.24
2023-05-04T05:11:19.035Z,22.25
2023-05-04T05:12:19.072Z,22.24
2023-05-04T05:13:19.170Z,22.25
2023-05-04T05:14:19.131Z,22.25
2023-05-04T05:15:19.166Z,22.25
2023-05-04T05:16:19.311Z,22.25
2023-05-04T05:17:19.218Z,22.26
2023-05-04T05:18:19.253Z,22.26
2023-05-04T05:19:19.289Z,22.25
2023-05-04T05:20:20.254Z,22.26
2023-05-04T05:21:19.359Z,22.26
2023-05-04T05:22:19.382Z,22.26
2023-05-04T05:23:19.392Z,22.26
2023-05-04T05:24:19.468Z,22.26
2023-05-04T05:25:19.452Z,22.27
2023-05-04T05:26:19.493Z,22.26
2023-05-04T05:27:19.739Z,22.27
2023-05-04T05:28:19.564Z,22.28
2023-05-04T05:29:19.710Z,22.27
2023-05-04T05:30:19.636Z,22.27
2023-05-04T05:31:19.671Z,22.27
2023-05-04T05:32:19.720Z,22.27
2023-05-04T05:33:19.750Z,22.26
2023-05-04T05:34:19.814Z,22.28
2023-05-04T05:35:19.883Z,22.28
2023-05-04T05:36:22.706Z,22.29
2023-05-04T05:37:20.228Z,22.30
2023-05-04T05:38:19.913Z,22.32
2023-05-04T05:39:19.894Z,22.35
2023-05-04T05:40:19.847Z,22.38
2023-05-04T05:41:19.839Z,22.42
2023-05-04T05:42:19.923Z,22.46
2023-05-04T05:43:19.826Z,22.50
2023-05-04T05:44:19.894Z,22.53
2023-05-04T05:45:19.796Z,22.57
2023-05-04T05:46:19.916Z,22.62
2023-05-04T05:47:19.855Z,22.68
2023-05-04T05:48:19.847Z,22.72
2023-05-04T05:49:19.864Z,22.77
2023-05-04T05:50:19.937Z,22.81
2023-05-04T05:51:19.791Z,22.84
2023-05-04T05:52:19.779Z,22.86
2023-05-04T05:53:19.748Z,22.85
2023-05-04T05:54:19.754Z,22.86
2023-05-04T05:55:19.779Z,22.86
2023-05-04T05:56:19.772Z,22.86
2023-05-04T05:57:19.748Z,22.86
2023-05-04T05:58:19.719Z,22.85
2023-05-04T05:59:19.712Z,22.85
2023-05-04T06:00:20.294Z,22.86
2023-05-04T06:01:19.696Z,22.87
2023-05-04T06:02:19.880Z,22.88
2023-05-04T06:03:19.900Z,22.88
2023-05-04T06:04:19.789Z,22.87
2023-05-04T06:05:19.694Z,22.88
2023-05-04T06:06:19.728Z,22.87
2023-05-04T06:07:19.674Z,22.87
2023-05-04T06:08:19.672Z,22.88
2023-05-04T06:09:19.717Z,22.90
2023-05-04T06:10:19.728Z,22.92
2023-05-04T06:11:19.634Z,22.94
2023-05-04T06:12:19.640Z,22.96
2023-05-04T06:13:19.693Z,23.00
2023-05-04T06:14:19.644Z,23.04
2023-05-04T06:15:19.659Z,23.06
2023-05-04T06:16:19.782Z,23.09
2023-05-04T06:17:19.592Z,23.12
2023-05-04T06:18:19.617Z,23.15
2023-05-04T06:19:19.589Z,23.18
2023-05-04T06:20:19.586Z,23.22
2023-05-04T06:21:19.680Z,23.26
2023-05-04T06:22:19.567Z,23.29
2023-05-04T06:23:19.614Z,23.32
2023-05-04T06:24:19.551Z,23.34
2023-05-04T06:25:19.557Z,23.37
2023-05-04T06:26:19.523Z,23.38
2023-05-04T06:27:19.534Z,23.41
2023-05-04T06:28:19.530Z,23.41
2023-05-04T06:29:19.557Z,23.42
2023-05-04T06:30:19.498Z,23.42
2023-05-04T06:31:19.546Z,23.40
2023-05-04T06:32:19.627Z,23.40
2023-05-04T06:33:19.502Z,23.42
2023-05-04T06:34:19.479Z,23.43
2023-05-04T06:35:19.467Z,23.44
2023-05-04T06:36:19.483Z,23.44
2023-05-04T06:37:19.769Z,23.42
2023-05-04T06:38:19.440Z,23.41
2023-05-04T06:39:19.472Z,23.39
2023-05-04T06:40:19.446Z,23.34
2023-05-04T06:41:19.445Z,23.28
2023-05-04T06:42:19.720Z,23.22
2023-05-04T06:43:19.459Z,23.16
2023-05-04T06:44:19.516Z,23.11
2023-05-04T06:45:19.586Z,23.05
2023-05-04T06:46:19.755Z,23.00
2023-05-04T06:47:19.681Z,22.95
2023-05-04T06:48:19.788Z,22.91
2023-05-04T06:49:19.727Z,22.86
2023-05-04T06:50:19.688Z,22.81
2023-05-04T06:51:19.700Z,22.78
2023-05-04T06:52:19.706Z,22.75
2023-05-04T06:53:19.692Z,22.71
2023-05-04T06:54:19.701Z,22.69
2023-05-04T06:55:19.706Z,22.66
2023-05-04T06:56:19.739Z,22.63
2023-05-04T06:57:19.759Z,22.60
2023-05-04T06:58:19.778Z,22.59
2023-05-04T06:59:19.805Z,22.57
2023-05-04T07:00:19.829Z,22.55
2023-05-04T07:01:19.822Z,22.52
2023-05-04T07:02:19.868Z,22.51
2023-05-04T07:03:19.933Z,22.49
2023-05-04T07:04:19.885Z,22.48
2023-05-04T07:05:19.940Z,22.46
2023-05-04T07:06:19.929Z,22.45
2023-05-04T07:07:20.005Z,22.44
2023-05-04T07:08:20.007Z,22.43
2023-05-04T07:09:20.047Z,22.43
2023-05-04T07:10:20.255Z,22.43
2023-05-04T07:11:20.077Z,22.42
2023-05-04T07:12:20.161Z,22.40
2023-05-04T07:13:20.192Z,22.39
2023-05-04T07:14:20.189Z,22.39
2023-05-04T07:15:20.242Z,22.38
2023-05-04T07:16:20.318Z,22.37
2023-05-04T07:17:20.294Z,22.36
2023-05-04T07:18:20.350Z,22.36
2023-05-04T07:19:20.404Z,22.34
2023-05-04T07:20:20.406Z,22.34
2023-05-04T07:21:27.476Z,22.33
2023-05-04T07:22:21.444Z,22.32
2023-05-04T07:23:20.448Z,22.31
2023-05-04T07:24:20.401Z,22.31
2023-05-04T07:25:20.478Z,22.30
2023-05-04T07:26:20.397Z,22.29
2023-05-04T07:27:20.391Z,22.28
2023-05-04T07:28:20.747Z,22.28
2023-05-04T07:29:20.474Z,22.27
2023-05-04T07:30:20.476Z,22.27
2023-05-04T07:31:20.398Z,22.25
2023-05-04T07:32:20.525Z,22.27
2023-05-04T07:33:20.420Z,22.32
2023-05-04T07:34:23.256Z,22.40
2023-05-04T07:35:20.400Z,22.49
2023-05-04T07:36:20.382Z,22.57
2023-05-04T07:37:20.753Z,22.64
2023-05-04T07:38:20.421Z,22.69
2023-05-04T07:39:20.429Z,22.70
2023-05-04T07:40:20.406Z,22.69
2023-05-04T07:41:20.379Z,22.67
2023-05-04T07:42:20.376Z,22.65
2023-05-04T07:43:20.399Z,22.62
2023-05-04T07:44:20.340Z,22.60
2023-05-04T07:45:20.338Z,22.58
2023-05-04T07:46:20.407Z,22.55
2023-05-04T07:47:20.422Z,22.53
2023-05-04T07:48:20.825Z,22.52
2023-05-04T07:49:20.301Z,22.50
2023-05-04T07:50:20.312Z,22.48
2023-05-04T07:51:20.299Z,22.48
2023-05-04T07:52:20.286Z,22.47
2023-05-04T07:53:20.351Z,22.47
2023-05-04T07:54:22.546Z,22.45
2023-05-04T07:55:20.476Z,22.44
2023-05-04T07:56:20.485Z,22.44
2023-05-04T07:57:20.496Z,22.43
2023-05-04T07:58:20.589Z,22.42
2023-05-04T07:59:21.031Z,22.40
2023-05-04T08:00:20.679Z,22.39
2023-05-04T08:01:20.681Z,22.38
2023-05-04T08:02:20.766Z,22.38
2023-05-04T08:03:20.854Z,22.38
2023-05-04T08:04:20.764Z,22.39
2023-05-04T08:05:20.807Z,22.38
2023-05-04T08:06:20.850Z,22.39
2023-05-04T08:07:20.913Z,22.39
2023-05-04T08:08:21.743Z,22.39
2023-05-04T08:09:21.030Z,22.38
2023-05-04T08:10:21.020Z,22.38
2023-05-04T08:11:21.906Z,22.38
2023-05-04T08:12:21.056Z,22.38
2023-05-04T08:13:21.110Z,22.37
2023-05-04T08:14:21.185Z,22.37
2023-05-04T08:15:21.433Z,22.36
2023-05-04T08:16:21.244Z,22.36
2023-05-04T08:17:21.303Z,22.37
2023-05-04T08:18:21.369Z,22.36
2023-05-04T08:19:21.377Z,22.35
2023-05-04T08:20:23.046Z,22.36
2023-05-04T08:21:22.353Z,22.36
2023-05-04T08:22:21.503Z,22.36
2023-05-04T08:23:21.822Z,22.39
2023-05-04T08:24:21.574Z,22.43
2023-05-04T08:25:21.672Z,22.46
2023-05-04T08:26:21.696Z,22.49
2023-05-04T08:27:21.676Z,22.50
2023-05-04T08:28:21.835Z,22.51
2023-05-04T08:29:21.682Z,22.52
2023-05-04T08:30:21.713Z,22.53
2023-05-04T08:31:21.790Z,22.53
2023-05-04T08:32:21.827Z,22.54
2023-05-04T08:33:21.937Z,22.54
2023-05-04T08:34:21.791Z,22.54
2023-05-04T08:35:21.796Z,22.55
2023-05-04T08:36:21.813Z,22.54
2023-05-04T08:37:21.854Z,22.54
2023-05-04T08:38:22.285Z,22.55
2023-05-04T08:39:22.763Z,22.54
2023-05-04T08:40:21.870Z,22.56
2023-05-04T08:41:21.933Z,22.55
2023-05-04T08:42:21.874Z,22.56
2023-05-04T08:43:22.008Z,22.60
2023-05-04T08:44:21.898Z,22.63
2023-05-04T08:45:22.009Z,22.65
2023-05-04T08:46:21.967Z,22.69
2023-05-04T08:47:22.152Z,22.71
2023-05-04T08:48:21.921Z,22.74
2023-05-04T08:49:21.996Z,22.76
2023-05-04T08:50:21.966Z,22.78
2023-05-04T08:51:21.928Z,22.80
2023-05-04T08:52:21.913Z,22.84
2023-05-04T08:53:21.925Z,22.85
2023-05-04T08:54:21.914Z,22.89
2023-05-04T08:55:21.901Z,22.92
2023-05-04T08:56:21.959Z,22.93
2023-05-04T08:57:21.929Z,22.94
2023-05-04T08:58:21.957Z,22.95
2023-05-04T08:59:21.969Z,22.95
2023-05-04T09:00:22.080Z,22.95
2023-05-04T09:01:22.246Z,22.96
2023-05-04T09:02:22.074Z,22.97
2023-05-04T09:03:22.192Z,22.99
2023-05-04T09:04:22.102Z,23.00
2023-05-04T09:05:22.163Z,23.02
2023-05-04T09:06:22.209Z,23.05
2023-05-04T09:07:22.322Z,23.07
2023-05-04T09:08:22.352Z,23.09
2023-05-04T09:09:22.344Z,23.11
2023-05-04T09:10:22.416Z,23.12
2023-05-04T09:11:22.490Z,23.14
2023-05-04T09:12:22.671Z,23.15
2023-05-04T09:13:22.661Z,23.16
2023-05-04T09:14:22.657Z,23.18
2023-05-04T09:15:22.727Z,23.20
2023-05-04T09:16:22.823Z,23.21
2023-05-04T09:17:22.853Z,23.22
2023-05-04T09:18:22.949Z,23.24
2023-05-04T09:19:22.949Z,23.25
2023-05-04T09:20:23.041Z,23.27
2023-05-04T09:21:23.069Z,23.28
2023-05-04T09:22:23.230Z,23.30
2023-05-04T09:23:23.205Z,23.30
2023-05-04T09:24:23.238Z,23.31
2023-05-04T09:25:23.302Z,23.32
2023-05-04T09:26:23.340Z,23.33
2023-05-04T09:27:23.350Z,23.33
2023-05-04T09:28:23.423Z,23.34
2023-05-04T09:29:23.776Z,23.34
2023-05-04T09:30:23.505Z,23.35
2023-05-04T09:31:24.449Z,23.35
2023-05-04T09:32:23.640Z,23.37
2023-05-04T09:33:23.809Z,23.40
2023-05-04T09:34:23.634Z,23.44
2023-05-04T09:35:32.453Z,23.47
2023-05-04T09:36:24.656Z,23.53
2023-05-04T09:37:23.705Z,23.57
2023-05-04T09:38:23.647Z,23.60
2023-05-04T09:39:23.631Z,23.61
2023-05-04T09:40:23.702Z,23.63
2023-05-04T09:41:24.341Z,23.65
2023-05-04T09:42:23.669Z,23.67
2023-05-04T09:43:23.633Z,23.69
2023-05-04T09:44:23.623Z,23.70
2023-05-04T09:45:23.628Z,23.71
2023-05-04T09:46:23.616Z,23.72
2023-05-04T09:47:23.591Z,23.74
2023-05-04T09:48:23.581Z,23.76
2023-05-04T09:49:23.616Z,23.79
2023-05-04T09:50:23.753Z,23.80
2023-05-04T09:51:23.578Z,23.82
2023-05-04T09:52:23.540Z,23.84
2023-05-04T09:53:23.611Z,23.86
2023-05-04T09:54:23.507Z,23.88
2023-05-04T09:55:23.511Z,23.90
2023-05-04T09:56:23.511Z,23.92
2023-05-04T09:57:23.490Z,23.94
2023-05-04T09:58:23.533Z,23.95
2023-05-04T09:59:23.546Z,23.96
2023-05-04T10:00:23.588Z,23.98
2023-05-04T10:01:23.829Z,24.00
2023-05-04T10:02:23.772Z,24.00
2023-05-04T10:03:23.920Z,24.02
2023-05-04T10:04:23.827Z,24.03
2023-05-04T10:05:23.930Z,24.04
2023-05-04T10:06:24.032Z,24.06
2023-05-04T10:07:24.072Z,24.07
2023-05-04T10:08:24.086Z,24.09
2023-05-04T10:09:24.095Z,24.10
2023-05-04T10:10:24.149Z,24.11
2023-05-04T10:11:24.205Z,24.12
2023-05-04T10:12:24.244Z,24.12
2023-05-04T10:13:24.306Z,24.11
2023-05-04T10:14:24.366Z,24.12
2023-05-04T10:15:24.420Z,24.13
2023-05-04T10:16:24.483Z,24.14
2023-05-04T10:17:24.520Z,24.14
2023-05-04T10:18:24.807Z,24.15
2023-05-04T10:19:24.571Z,24.15
2023-05-04T10:20:24.649Z,24.15
2023-05-04T10:21:24.686Z,24.15
2023-05-04T10:22:24.709Z,24.16
2023-05-04T10:23:24.791Z,24.16
2023-05-04T10:24:24.830Z,24.18
2023-05-04T10:25:24.868Z,24.20
2023-05-04T10:26:25.885Z,24.21
2023-05-04T10:27:24.982Z,24.21
2023-05-04T10:28:25.040Z,24.23
2023-05-04T10:29:25.066Z,24.24
2023-05-04T10:30:25.111Z,24.24
2023-05-04T10:31:25.140Z,24.26
2023-05-04T10:32:25.342Z,24.28
2023-05-04T10:33:25.265Z,24.30
2023-05-04T10:34:25.325Z,24.28
2023-05-04T10:35:25.352Z,24.27
2023-05-04T10:36:25.488Z,24.25
2023-05-04T10:37:25.432Z,24.20
2023-05-04T10:38:25.512Z,24.16
2023-05-04T10:39:25.531Z,24.10
2023-05-04T10:40:25.756Z,24.07
2023-05-04T10:41:25.659Z,24.02
2023-05-04T10:42:26.444Z,23.97
2023-05-04T10:43:25.811Z,23.92
2023-05-04T10:44:25.844Z,23.89
2023-05-04T10:45:25.874Z,23.84
2023-05-04T10:46:25.860Z,23.81
2023-05-04T10:47:25.895Z,23.77
2023-05-04T10:48:25.860Z,23.73
2023-05-04T10:49:25.851Z,23.71
2023-05-04T10:50:25.856Z,23.68
2023-05-04T10:51:32.676Z,23.65
2023-05-04T10:52:26.831Z,23.62
2023-05-04T10:53:26.371Z,23.60
2023-05-04T10:54:25.825Z,23.57
2023-05-04T10:55:25.848Z,23.55
2023-05-04T10:56:25.834Z,23.53
2023-05-04T10:57:25.806Z,23.51
2023-05-04T10:58:25.833Z,23.49
2023-05-04T10:59:25.809Z,23.47
2023-05-04T11:00:25.807Z,23.44
2023-05-04T11:01:25.818Z,23.43
2023-05-04T11:02:25.838Z,23.42
2023-05-04T11:03:25.917Z,23.40
2023-05-04T11:04:26.364Z,23.37
2023-05-04T11:05:25.921Z,23.36
2023-05-04T11:06:25.782Z,23.36
2023-05-04T11:07:25.816Z,23.35
2023-05-04T11:08:25.910Z,23.33
2023-05-04T11:09:25.826Z,23.32
2023-05-04T11:10:26.204Z,23.30
2023-05-04T11:11:25.872Z,23.28
2023-05-04T11:12:25.928Z,23.28
2023-05-04T11:13:26.078Z,23.27
2023-05-04T11:14:26.026Z,23.32
2023-05-04T11:15:26.051Z,23.37
2023-05-04T11:16:26.132Z,23.41
2023-05-04T11:17:28.443Z,23.43
2023-05-04T11:18:26.108Z,23.44
2023-05-04T11:19:26.105Z,23.45
2023-05-04T11:20:26.085Z,23.44
2023-05-04T11:21:26.226Z,23.43
2023-05-04T11:22:26.122Z,23.42
2023-05-04T11:23:26.090Z,23.42
2023-05-04T11:24:26.066Z,23.41
2023-05-04T11:25:26.068Z,23.40
2023-05-04T11:26:26.042Z,23.39
2023-05-04T11:27:26.100Z,23.37
2023-05-04T11:28:26.086Z,23.37
2023-05-04T11:29:26.352Z,23.36
2023-05-04T11:30:26.022Z,23.35
2023-05-04T11:31:26.067Z,23.33
2023-05-04T11:32:26.016Z,23.33
2023-05-04T11:33:25.991Z,23.32
2023-05-04T11:34:26.019Z,23.33
2023-05-04T11:35:26.005Z,23.33
2023-05-04T11:36:26.016Z,23.33
2023-05-04T11:37:25.960Z,23.32
2023-05-04T11:38:25.950Z,23.32
2023-05-04T11:39:26.372Z,23.31
2023-05-04T11:40:25.974Z,23.30
2023-05-04T11:41:25.973Z,23.30
2023-05-04T11:42:25.979Z,23.30
2023-05-04T11:43:26.397Z,23.30
2023-05-04T11:44:28.892Z,23.29
2023-05-04T11:45:25.960Z,23.28
2023-05-04T11:46:26.926Z,23.28
2023-05-04T11:47:25.963Z,23.28
2023-05-04T11:48:26.383Z,23.28
2023-05-04T11:49:25.898Z,23.27
2023-05-04T11:50:25.861Z,23.27
2023-05-04T11:51:25.881Z,23.27
2023-05-04T11:52:25.879Z,23.27
2023-05-04T11:53:25.861Z,23.28
2023-05-04T11:54:25.836Z,23.27
2023-05-04T11:55:25.852Z,23.27
2023-05-04T11:56:25.823Z,23.27
2023-05-04T11:57:25.828Z,23.27
2023-05-04T11:58:25.820Z,23.26
2023-05-04T11:59:25.838Z,23.26
2023-05-04T12:00:25.799Z,23.26
2023-05-04T12:01:25.823Z,23.26
2023-05-04T12:02:25.815Z,23.25
2023-05-04T12:03:27.959Z,23.25
2023-05-04T12:04:26.794Z,23.25
2023-05-04T12:05:25.776Z,23.25
2023-05-04T12:06:25.742Z,23.25
2023-05-04T12:07:25.733Z,23.26
2023-05-04T12:08:25.753Z,23.25
2023-05-04T12:09:25.774Z,23.25
2023-05-04T12:10:25.718Z,23.25
2023-05-04T12:11:26.231Z,23.25
2023-05-04T12:12:25.716Z,23.25
2023-05-04T12:13:25.697Z,23.24
2023-05-04T12:14:25.705Z,23.25
2023-05-04T12:15:25.766Z,23.25
2023-05-04T12:16:25.816Z,23.24
2023-05-04T12:17:25.891Z,23.23
2023-05-04T12:18:25.914Z,23.23
2023-05-04T12:19:25.926Z,23.23
2023-05-04T12:20:25.987Z,23.23
2023-05-04T12:21:26.019Z,23.23
2023-05-04T12:22:26.108Z,23.23
2023-05-04T12:23:26.168Z,23.23
2023-05-04T12:24:26.205Z,23.22
2023-05-04T12:25:26.273Z,23.22
2023-05-04T12:26:26.334Z,23.21
2023-05-04T12:27:26.338Z,23.21
2023-05-04T12:28:26.422Z,23.21
2023-05-04T12:29:26.467Z,23.21
2023-05-04T12:30:26.493Z,23.21
2023-05-04T12:31:26.624Z,23.21
2023-05-04T12:32:26.638Z,23.21
2023-05-04T12:33:26.674Z,23.20
2023-05-04T12:34:26.863Z,23.20
2023-05-04T12:35:26.764Z,23.21
2023-05-04T12:36:26.832Z,23.20
2023-05-04T12:37:26.871Z,23.20
2023-05-04T12:38:26.918Z,23.19
2023-05-04T12:39:26.987Z,23.19
2023-05-04T12:40:28.569Z,23.19
2023-05-04T12:41:27.134Z,23.19
2023-05-04T12:42:27.147Z,23.18
2023-05-04T12:43:27.214Z,23.18
2023-05-04T12:44:27.337Z,23.18
2023-05-04T12:45:27.304Z,23.18
2023-05-04T12:46:27.425Z,23.17
2023-05-04T12:47:27.489Z,23.18
2023-05-04T12:48:27.502Z,23.17
2023-05-04T12:49:27.555Z,23.17
2023-05-04T12:50:27.612Z,23.16
2023-05-04T12:51:27.676Z,23.17
2023-05-04T12:52:27.745Z,23.16